Ana Sayfa
METAR-TAF:

METAR-TAF

Havaalanları :

Tanabe, Japonya

Enlem: 33-44N, Boylam: 135-23E, yükseklik: 105 m

Güncel hava durumu gözlemi

Rapor saat 10:00 UTC de 6 saat ve 11 dakika önce yapıldı.
Rüzgar değişken yönden 1 kt
Sıcaklık 25°C
Nem 89%
Basınç 1012 hPa
Görüş mesafesi 10 km veya daha fazla
500 ft yükseklikte az bulutlu
900 ft yükseklikte parçalı çok bulutlu
8000 ft yükseklikte parçalı çok bulutlu
hafif sağanak yağmurlar,

METAR: RJBD 251000Z VRB01KT 9999 -SHRA FEW005 BKN009 BKN080 25/23 Q1012

Saat: 01:11 (16:11 UTC)


TAF: eksik

4.000'den fazla havaalanı için hava durumu gözlemleri ve tahminleri (METAR ve TAF raporları).

Kullanılabilir istasyonlar harita üzerinde sarı ve kırmızı noktalarla gösterilir.

İstasyonun adını görmek için fareyi noktanın üzerinde gezdirin.

Sonrasında hava gözlem ve tahminlerini görmek için tıklayın.

Haritayı değiştirmek için: yaklaştırmak için siyah artı işaretli yeşil düğmeye ve uzaklaştırmak için de eksi işaretli düğmeye hızla tıklayın; bitişik haritalar için yeşil okları kullanın.


METAR-TAF: